createdAt,value
2019-02-26T00:00:56.486Z,2.80
2019-02-26T00:03:28.530Z,2.90
2019-02-26T00:05:59.516Z,2.90
2019-02-26T00:08:31.727Z,3.00
2019-02-26T00:11:03.507Z,3.00
2019-02-26T00:13:34.611Z,3.00
2019-02-26T00:16:07.687Z,3.00
2019-02-26T00:18:36.528Z,3.00
2019-02-26T00:21:06.422Z,3.00
2019-02-26T00:23:36.257Z,2.90
2019-02-26T00:26:06.234Z,3.00
2019-02-26T00:28:36.450Z,3.00
2019-02-26T00:31:07.769Z,3.10
2019-02-26T00:33:37.950Z,3.20
2019-02-26T00:36:09.001Z,3.20
2019-02-26T00:38:40.014Z,3.20
2019-02-26T00:41:11.081Z,3.20
2019-02-26T00:43:40.969Z,3.20
2019-02-26T00:46:10.900Z,3.20
2019-02-26T00:48:43.046Z,3.20
2019-02-26T00:51:12.361Z,3.20
2019-02-26T00:53:42.235Z,3.20
2019-02-26T00:56:12.110Z,3.10
2019-02-26T00:58:43.990Z,3.20
2019-02-26T01:01:15.281Z,3.20
2019-02-26T01:03:46.981Z,3.10
2019-02-26T01:06:16.619Z,3.10
2019-02-26T01:08:47.079Z,3.20
2019-02-26T01:11:19.326Z,3.20
2019-02-26T01:13:50.376Z,3.20
2019-02-26T01:16:20.329Z,3.20
2019-02-26T01:18:51.044Z,3.20
2019-02-26T01:21:24.384Z,3.20
2019-02-26T01:23:53.213Z,3.10
2019-02-26T01:26:23.042Z,3.10
2019-02-26T01:28:56.124Z,3.20
2019-02-26T01:31:27.382Z,3.10
2019-02-26T01:33:58.210Z,3.10
2019-02-26T01:36:28.067Z,3.20
2019-02-26T01:38:57.904Z,3.20
2019-02-26T01:41:27.804Z,3.10
2019-02-26T01:43:57.713Z,3.10
2019-02-26T01:46:27.546Z,3.10
2019-02-26T01:48:58.017Z,3.10
2019-02-26T01:51:28.919Z,3.20
2019-02-26T01:53:58.767Z,3.10
2019-02-26T01:56:28.637Z,3.10
2019-02-26T01:59:02.164Z,3.10
2019-02-26T02:01:29.976Z,3.10
2019-02-26T02:03:59.896Z,3.00
2019-02-26T02:06:30.371Z,3.00
2019-02-26T02:09:01.255Z,3.10
2019-02-26T02:11:33.315Z,3.00
2019-02-26T02:14:04.218Z,3.00
2019-02-26T02:16:34.385Z,3.00
2019-02-26T02:19:04.431Z,3.00
2019-02-26T02:21:35.668Z,3.00
2019-02-26T02:24:08.248Z,2.90
2019-02-26T02:26:37.269Z,2.90
2019-02-26T02:29:07.121Z,2.90
2019-02-26T02:31:37.816Z,2.90
2019-02-26T02:34:08.494Z,2.90
2019-02-26T02:36:38.330Z,2.90
2019-02-26T02:39:12.969Z,3.00
2019-02-26T02:41:42.099Z,2.90
2019-02-26T02:44:14.495Z,2.90
2019-02-26T02:46:44.565Z,2.90
2019-02-26T02:49:17.872Z,2.90
2019-02-26T02:51:47.287Z,2.80
2019-02-26T02:54:18.564Z,2.80
2019-02-26T02:56:48.680Z,2.70
2019-02-26T02:59:18.573Z,2.70
2019-02-26T03:01:51.339Z,2.70
2019-02-26T03:04:22.088Z,2.70
2019-02-26T03:06:52.928Z,2.70
2019-02-26T03:09:22.921Z,2.70
2019-02-26T03:11:54.939Z,2.70
2019-02-26T03:14:24.293Z,2.70
2019-02-26T03:16:54.191Z,2.70
2019-02-26T03:19:24.051Z,2.80
2019-02-26T03:21:55.046Z,2.80
2019-02-26T03:24:26.262Z,2.80
2019-02-26T03:26:56.579Z,2.80
2019-02-26T03:29:28.466Z,2.90
2019-02-26T03:31:57.984Z,2.90
2019-02-26T03:34:27.824Z,2.90
2019-02-26T03:36:59.943Z,3.00
2019-02-26T03:39:29.187Z,3.00
2019-02-26T03:41:59.057Z,3.00
2019-02-26T03:44:30.311Z,3.00
2019-02-26T03:47:00.393Z,3.00
2019-02-26T03:49:30.266Z,3.00
2019-02-26T03:52:00.287Z,3.10
2019-02-26T03:54:30.557Z,3.10
2019-02-26T03:57:00.427Z,3.10
2019-02-26T03:59:30.383Z,3.10
2019-02-26T04:02:00.331Z,3.10
2019-02-26T04:04:30.958Z,3.00
2019-02-26T04:07:04.291Z,3.00
2019-02-26T04:09:33.393Z,3.00
2019-02-26T04:12:03.245Z,3.00
2019-02-26T04:14:33.134Z,2.90
2019-02-26T04:17:04.126Z,2.80
2019-02-26T04:19:34.708Z,2.80
2019-02-26T04:22:26.616Z,2.70
2019-02-26T04:25:01.443Z,2.70
2019-02-26T04:27:59.788Z,2.60
2019-02-26T04:31:02.765Z,2.50
2019-02-26T04:34:08.442Z,2.50
2019-02-26T04:37:18.053Z,2.50
2019-02-26T04:40:18.215Z,2.40
2019-02-26T04:43:34.118Z,2.30
2019-02-26T04:46:19.709Z,2.20
2019-02-26T04:48:49.655Z,2.20
2019-02-26T04:51:19.512Z,2.10
2019-02-26T04:53:51.785Z,2.30
2019-02-26T04:56:20.897Z,2.30
2019-02-26T04:58:50.781Z,2.40
2019-02-26T05:01:20.641Z,2.30
2019-02-26T05:03:50.487Z,2.30
2019-02-26T05:06:20.370Z,2.30
2019-02-26T05:08:50.232Z,2.20
2019-02-26T05:11:31.388Z,2.20
2019-02-26T05:13:51.591Z,2.20
2019-02-26T05:16:21.461Z,2.10
2019-02-26T05:18:52.230Z,2.00
2019-02-26T05:21:24.483Z,1.90
2019-02-26T05:23:55.187Z,1.80
2019-02-26T05:26:25.854Z,1.70
2019-02-26T05:28:55.749Z,1.70
2019-02-26T05:31:25.633Z,1.70
2019-02-26T05:33:57.731Z,1.60
2019-02-26T05:36:28.321Z,1.50
2019-02-26T05:39:00.317Z,1.50
2019-02-26T05:41:29.951Z,1.50
2019-02-26T05:44:03.519Z,1.50
2019-02-26T05:46:31.322Z,1.50
2019-02-26T05:49:03.028Z,1.50
2019-02-26T05:51:35.138Z,1.50
2019-02-26T05:54:07.805Z,1.50
2019-02-26T05:56:37.216Z,1.50
2019-02-26T05:59:09.632Z,1.60
2019-02-26T06:01:39.554Z,1.50
2019-02-26T06:04:12.346Z,1.60
2019-02-26T06:06:41.963Z,1.70
2019-02-26T06:09:11.818Z,1.80
2019-02-26T06:11:46.418Z,1.90
2019-02-26T06:14:14.065Z,1.80
2019-02-26T06:16:46.207Z,1.80
2019-02-26T06:19:18.169Z,1.80
2019-02-26T06:21:49.748Z,1.90
2019-02-26T06:24:22.417Z,1.80
2019-02-26T06:26:50.912Z,1.80
2019-02-26T06:29:24.435Z,1.90
2019-02-26T06:31:52.459Z,2.00
2019-02-26T06:34:22.476Z,2.10
2019-02-26T06:36:54.942Z,2.10
2019-02-26T06:39:26.739Z,2.10
2019-02-26T06:41:56.314Z,2.20
2019-02-26T06:44:26.332Z,2.10
2019-02-26T06:47:02.624Z,2.20
2019-02-26T06:49:36.009Z,2.20
2019-02-26T06:52:07.887Z,2.20
2019-02-26T06:54:37.479Z,2.30
2019-02-26T06:57:07.375Z,2.40
2019-02-26T06:59:37.287Z,2.40
2019-02-26T07:02:08.778Z,2.40
2019-02-26T07:04:38.910Z,2.40
2019-02-26T07:07:12.237Z,2.40
2019-02-26T07:09:41.938Z,2.60
2019-02-26T07:12:11.902Z,2.70
2019-02-26T07:14:41.773Z,2.80
2019-02-26T07:17:11.631Z,2.90
2019-02-26T07:19:41.510Z,3.10
2019-02-26T07:22:13.395Z,3.10
2019-02-26T07:24:44.558Z,3.20
2019-02-26T07:27:14.387Z,3.30
2019-02-26T07:29:45.547Z,3.40
2019-02-26T07:32:17.910Z,3.40
2019-02-26T07:34:49.655Z,3.50
2019-02-26T07:37:18.820Z,3.60
2019-02-26T07:39:49.712Z,3.70
2019-02-26T07:42:20.311Z,3.80
2019-02-26T07:44:50.215Z,3.80
2019-02-26T07:47:22.013Z,4.00
2019-02-26T07:49:51.595Z,4.00
2019-02-26T07:52:21.960Z,4.10
2019-02-26T07:54:53.019Z,4.20
2019-02-26T07:57:24.777Z,4.30
2019-02-26T07:59:54.444Z,4.30
2019-02-26T08:02:26.064Z,4.50
2019-02-26T08:04:55.805Z,4.60
2019-02-26T08:07:26.737Z,4.70
2019-02-26T08:09:57.171Z,4.70
2019-02-26T08:12:27.054Z,4.80
2019-02-26T08:14:56.951Z,4.90
2019-02-26T08:17:26.789Z,5.00
2019-02-26T08:19:56.647Z,5.10
2019-02-26T08:22:27.520Z,5.20
2019-02-26T08:24:58.189Z,5.30
2019-02-26T08:27:28.561Z,5.40
2019-02-26T08:30:00.939Z,5.50
2019-02-26T08:32:31.114Z,5.60
2019-02-26T08:35:00.962Z,5.70
2019-02-26T08:37:30.953Z,5.80
2019-02-26T08:40:00.843Z,5.80
2019-02-26T08:42:30.683Z,5.80
2019-02-26T08:45:00.556Z,6.00
2019-02-26T08:47:30.715Z,6.10
2019-02-26T08:50:01.752Z,6.00
2019-02-26T08:52:32.135Z,6.10
2019-02-26T08:55:02.027Z,6.20
2019-02-26T08:57:31.912Z,6.20
2019-02-26T09:00:01.793Z,6.30
2019-02-26T09:02:31.622Z,6.40
2019-02-26T09:05:02.671Z,6.50
2019-02-26T09:07:33.449Z,6.60
2019-02-26T09:10:03.315Z,6.60
2019-02-26T09:12:33.197Z,6.60
2019-02-26T09:15:03.087Z,6.60
2019-02-26T09:17:34.692Z,6.70
2019-02-26T09:20:09.424Z,6.80
2019-02-26T09:22:37.009Z,6.90
2019-02-26T09:25:07.281Z,7.00
2019-02-26T09:27:42.746Z,7.10
2019-02-26T09:30:16.162Z,7.10
2019-02-26T09:32:46.238Z,7.20
2019-02-26T09:35:18.887Z,7.30
2019-02-26T09:37:50.180Z,7.30
2019-02-26T09:40:20.209Z,7.40
2019-02-26T09:42:54.249Z,7.40
2019-02-26T09:45:25.390Z,7.50
2019-02-26T09:47:55.604Z,7.50
2019-02-26T09:50:25.577Z,7.60
2019-02-26T09:52:58.621Z,7.60
2019-02-26T09:55:26.940Z,7.60
2019-02-26T09:57:56.817Z,7.70
2019-02-26T10:00:29.314Z,7.60
2019-02-26T10:02:58.154Z,7.80
2019-02-26T10:05:28.013Z,7.80
2019-02-26T10:07:59.994Z,7.90
2019-02-26T10:10:31.204Z,8.00
2019-02-26T10:13:02.881Z,8.00
2019-02-26T10:15:34.649Z,8.00
2019-02-26T10:18:06.572Z,8.10
2019-02-26T10:20:35.476Z,8.10
2019-02-26T10:23:06.271Z,8.20
2019-02-26T10:25:38.594Z,8.20
2019-02-26T10:28:09.654Z,8.30
2019-02-26T10:30:41.601Z,8.30
2019-02-26T10:33:10.928Z,8.30
2019-02-26T10:35:42.803Z,8.30
2019-02-26T10:38:12.278Z,8.50
2019-02-26T10:40:53.497Z,8.60
2019-02-26T10:43:13.653Z,8.70
2019-02-26T10:45:44.847Z,8.60
2019-02-26T10:48:16.853Z,8.50
2019-02-26T10:50:49.119Z,8.50
2019-02-26T10:53:20.353Z,8.50
2019-02-26T10:55:49.741Z,8.60
2019-02-26T10:58:19.676Z,8.80
2019-02-26T11:00:54.790Z,9.00
2019-02-26T11:03:24.004Z,9.30
2019-02-26T11:05:53.890Z,9.40
2019-02-26T11:08:26.749Z,9.70
2019-02-26T11:10:55.243Z,10.00
2019-02-26T11:13:25.885Z,10.20
2019-02-26T11:15:57.578Z,10.30
2019-02-26T11:18:27.298Z,10.40
2019-02-26T11:20:59.289Z,10.50
2019-02-26T11:23:31.167Z,10.50
2019-02-26T11:26:00.191Z,10.30
2019-02-26T11:28:33.238Z,10.10
2019-02-26T11:31:01.552Z,10.10
2019-02-26T11:33:31.455Z,10.00
2019-02-26T11:36:03.023Z,9.90
2019-02-26T11:38:34.777Z,9.70
2019-02-26T11:41:04.363Z,9.60
2019-02-26T11:43:34.296Z,9.60
2019-02-26T11:46:06.290Z,9.70
2019-02-26T11:48:35.834Z,9.80
2019-02-26T11:51:05.799Z,9.70
2019-02-26T11:53:35.694Z,9.70
2019-02-26T11:56:05.641Z,9.70
2019-02-26T11:58:37.786Z,9.80
2019-02-26T12:01:14.007Z,9.80
2019-02-26T12:03:44.063Z,9.80
2019-02-26T12:06:13.943Z,9.70
2019-02-26T12:08:44.876Z,9.70
2019-02-26T12:11:17.783Z,9.80
2019-02-26T12:13:47.330Z,9.80
2019-02-26T12:16:18.420Z,9.90
2019-02-26T12:18:48.263Z,9.90
2019-02-26T12:21:18.229Z,10.00
2019-02-26T12:23:48.134Z,9.90
2019-02-26T12:26:21.684Z,9.90
2019-02-26T12:28:52.275Z,9.80
2019-02-26T12:31:22.016Z,9.80
2019-02-26T12:33:51.882Z,9.70
2019-02-26T12:36:23.591Z,9.80
2019-02-26T12:38:54.282Z,9.80
2019-02-26T12:41:24.822Z,9.90
2019-02-26T12:43:54.667Z,10.00
2019-02-26T12:46:27.338Z,10.20
2019-02-26T12:48:56.035Z,10.20
2019-02-26T12:51:28.082Z,10.30
2019-02-26T12:53:57.411Z,10.40
2019-02-26T12:56:29.868Z,10.70
2019-02-26T12:58:58.838Z,10.90
2019-02-26T13:01:28.687Z,10.80
2019-02-26T13:03:58.539Z,10.60
2019-02-26T13:06:28.409Z,10.50
2019-02-26T13:08:58.250Z,10.30
2019-02-26T13:11:28.673Z,10.20
2019-02-26T13:13:58.523Z,10.10
2019-02-26T13:16:28.380Z,10.00
2019-02-26T13:19:00.891Z,10.00
2019-02-26T13:21:29.724Z,9.90
2019-02-26T13:24:11.452Z,10.00
2019-02-26T13:29:02.630Z,10.00
2019-02-26T13:34:03.993Z,9.90
2019-02-26T13:36:36.402Z,10.00
2019-02-26T13:39:07.849Z,10.00
2019-02-26T13:41:39.057Z,10.00
2019-02-26T13:44:09.663Z,10.00
2019-02-26T13:46:39.551Z,10.00
2019-02-26T13:49:08.756Z,10.00
2019-02-26T13:51:38.601Z,10.00
2019-02-26T13:54:08.491Z,9.90
2019-02-26T13:56:38.388Z,9.90
2019-02-26T13:59:08.213Z,9.80
2019-02-26T14:01:38.104Z,9.80
2019-02-26T14:04:07.937Z,9.80
2019-02-26T14:06:38.127Z,9.90
2019-02-26T14:09:08.562Z,9.90
2019-02-26T14:11:38.471Z,9.90
2019-02-26T14:14:08.426Z,9.90
2019-02-26T14:16:38.296Z,9.90
2019-02-26T14:19:08.187Z,9.90
2019-02-26T14:21:38.021Z,9.90
2019-02-26T14:24:07.876Z,9.90
2019-02-26T14:27:15.891Z,9.90
2019-02-26T14:29:45.722Z,9.90
2019-02-26T14:32:15.579Z,9.80
2019-02-26T14:34:45.666Z,9.80
2019-02-26T14:37:15.514Z,9.80
2019-02-26T14:39:45.403Z,9.80
2019-02-26T14:42:18.839Z,9.70
2019-02-26T14:44:49.907Z,9.70
2019-02-26T14:47:20.465Z,9.60
2019-02-26T14:49:50.797Z,9.60
2019-02-26T14:52:20.669Z,9.50
2019-02-26T14:54:50.590Z,9.50
2019-02-26T14:57:20.502Z,9.40
2019-02-26T14:59:50.422Z,9.40
2019-02-26T15:02:20.253Z,9.40
2019-02-26T15:04:50.101Z,9.30
2019-02-26T15:07:20.930Z,9.30
2019-02-26T15:09:50.818Z,9.30
2019-02-26T15:12:21.138Z,9.20
2019-02-26T15:14:51.707Z,9.20
2019-02-26T15:17:21.591Z,9.10
2019-02-26T15:19:56.328Z,9.10
2019-02-26T15:22:28.166Z,9.00
2019-02-26T15:24:58.225Z,9.00
2019-02-26T15:27:35.893Z,8.90
2019-02-26T15:29:59.914Z,8.80
2019-02-26T15:32:56.545Z,8.80
2019-02-26T15:35:27.294Z,8.80
2019-02-26T15:38:01.420Z,8.70
2019-02-26T15:40:31.478Z,8.60
2019-02-26T15:45:52.170Z,8.50
2019-02-26T15:48:22.183Z,8.50
2019-02-26T15:50:52.017Z,8.40
2019-02-26T15:53:23.847Z,8.40
2019-02-26T15:55:53.667Z,8.40
2019-02-26T15:58:24.015Z,8.30
2019-02-26T16:00:53.860Z,8.20
2019-02-26T16:03:23.858Z,8.20
2019-02-26T16:05:54.887Z,8.00
2019-02-26T16:08:34.209Z,8.00
2019-02-26T16:10:56.834Z,7.90
2019-02-26T16:13:27.168Z,7.90
2019-02-26T16:15:57.632Z,7.80
2019-02-26T16:18:30.134Z,7.80
2019-02-26T16:20:59.937Z,7.70
2019-02-26T16:23:29.791Z,7.70
2019-02-26T16:26:00.727Z,7.60
2019-02-26T16:28:31.851Z,7.60
2019-02-26T16:31:04.665Z,7.50
2019-02-26T16:33:37.651Z,7.50
2019-02-26T16:36:08.225Z,7.40
2019-02-26T16:38:38.101Z,7.40
2019-02-26T16:41:08.050Z,7.30
2019-02-26T16:43:40.074Z,7.30
2019-02-26T16:46:10.186Z,7.30
2019-02-26T16:48:40.248Z,7.20
2019-02-26T16:51:10.080Z,7.10
2019-02-26T16:53:39.932Z,7.00
2019-02-26T16:56:09.859Z,7.00
2019-02-26T16:58:39.753Z,7.00
2019-02-26T17:01:10.803Z,6.90
2019-02-26T17:03:40.655Z,6.90
2019-02-26T17:06:12.135Z,6.80
2019-02-26T17:08:42.011Z,6.80
2019-02-26T17:11:13.548Z,6.80
2019-02-26T17:13:44.151Z,6.70
2019-02-26T17:16:14.509Z,6.70
2019-02-26T17:18:44.414Z,6.70
2019-02-26T17:21:14.253Z,6.60
2019-02-26T17:23:47.094Z,6.60
2019-02-26T17:26:17.625Z,6.60
2019-02-26T17:28:47.574Z,6.60
2019-02-26T17:31:17.418Z,6.50
2019-02-26T17:33:47.860Z,6.40
2019-02-26T17:36:17.721Z,6.40
2019-02-26T17:38:51.532Z,6.30
2019-02-26T17:41:19.495Z,6.30
2019-02-26T17:43:49.385Z,6.20
2019-02-26T17:46:19.221Z,6.10
2019-02-26T17:48:49.083Z,6.00
2019-02-26T17:51:19.535Z,6.00
2019-02-26T17:53:49.711Z,5.90
2019-02-26T17:56:19.587Z,6.00
2019-02-26T17:58:49.791Z,5.90
2019-02-26T18:01:19.635Z,5.90
2019-02-26T18:03:49.474Z,5.90
2019-02-26T18:06:19.430Z,5.80
2019-02-26T18:08:49.269Z,5.70
2019-02-26T18:11:20.864Z,5.70
2019-02-26T18:13:50.809Z,5.70
2019-02-26T18:16:21.235Z,5.60
2019-02-26T18:18:51.123Z,5.60
2019-02-26T18:21:20.973Z,5.60
2019-02-26T18:23:50.839Z,5.50
2019-02-26T18:26:20.816Z,5.50
2019-02-26T18:28:50.755Z,5.50
2019-02-26T18:31:26.491Z,5.50
2019-02-26T18:33:52.189Z,5.40
2019-02-26T18:36:22.067Z,5.30
2019-02-26T18:38:51.942Z,5.30
2019-02-26T18:41:21.795Z,5.20
2019-02-26T18:43:51.757Z,5.10
2019-02-26T18:46:21.604Z,5.00
2019-02-26T18:48:51.450Z,5.00
2019-02-26T18:51:21.360Z,4.90
2019-02-26T18:53:51.335Z,5.00
2019-02-26T18:56:21.275Z,5.00
2019-02-26T18:58:51.856Z,4.90
2019-02-26T19:01:22.518Z,4.80
2019-02-26T19:03:52.584Z,4.80
2019-02-26T19:06:24.722Z,4.80
2019-02-26T19:08:54.111Z,4.80
2019-02-26T19:11:25.655Z,4.80
2019-02-26T19:13:56.235Z,4.70
2019-02-26T19:16:26.105Z,4.70
2019-02-26T19:18:56.566Z,4.60
2019-02-26T19:21:26.398Z,4.50
2019-02-26T19:23:56.258Z,4.60
2019-02-26T19:26:27.846Z,4.60
2019-02-26T19:28:59.075Z,4.60
2019-02-26T19:31:29.275Z,4.50
2019-02-26T19:33:59.517Z,4.40
2019-02-26T19:36:29.358Z,4.40
2019-02-26T19:39:00.956Z,4.40
2019-02-26T19:41:30.785Z,4.40
2019-02-26T19:44:00.743Z,4.30
2019-02-26T19:46:30.743Z,4.30
2019-02-26T19:49:00.617Z,4.30
2019-02-26T19:51:30.459Z,4.10
2019-02-26T19:54:00.420Z,4.10
2019-02-26T19:56:30.268Z,4.00
2019-02-26T19:59:00.150Z,4.00
2019-02-26T20:01:30.055Z,4.00
2019-02-26T20:03:59.899Z,4.00
2019-02-26T20:06:29.797Z,3.90
2019-02-26T20:08:59.697Z,4.00
2019-02-26T20:11:29.666Z,3.90
2019-02-26T20:14:04.712Z,3.90
2019-02-26T20:16:31.028Z,3.90
2019-02-26T20:19:00.905Z,3.90
2019-02-26T20:21:30.740Z,3.90
2019-02-26T20:24:00.607Z,3.80
2019-02-26T20:26:30.431Z,3.70
2019-02-26T20:29:00.822Z,3.70
2019-02-26T20:31:30.748Z,3.60
2019-02-26T20:34:00.608Z,3.60
2019-02-26T20:36:30.494Z,3.60
2019-02-26T20:39:00.354Z,3.50
2019-02-26T20:41:30.347Z,3.50
2019-02-26T20:44:00.190Z,3.40
2019-02-26T20:46:30.027Z,3.40
2019-02-26T20:48:59.892Z,3.40
2019-02-26T20:51:29.763Z,3.30
2019-02-26T20:53:59.624Z,3.20
2019-02-26T20:56:31.015Z,3.20
2019-02-26T20:59:01.042Z,3.10
2019-02-26T21:01:32.501Z,3.10
2019-02-26T21:04:02.448Z,3.00
2019-02-26T21:06:32.295Z,3.00
2019-02-26T21:09:06.857Z,3.00
2019-02-26T21:15:01.604Z,3.10
2019-02-26T21:17:31.458Z,3.10
2019-02-26T21:20:01.301Z,3.00
2019-02-26T21:22:31.197Z,3.00
2019-02-26T21:25:01.022Z,3.00
2019-02-26T21:27:30.868Z,3.00
2019-02-26T21:30:00.768Z,3.00
2019-02-26T21:32:30.615Z,3.00
2019-02-26T21:35:00.521Z,2.90
2019-02-26T21:37:32.600Z,2.90
2019-02-26T21:40:01.973Z,2.80
2019-02-26T21:42:31.837Z,2.80
2019-02-26T21:45:01.713Z,2.80
2019-02-26T21:47:31.618Z,2.80
2019-02-26T21:50:01.497Z,2.80
2019-02-26T21:52:31.340Z,2.70
2019-02-26T21:55:01.627Z,2.70
2019-02-26T21:57:31.771Z,2.70
2019-02-26T22:00:05.089Z,2.60
2019-02-26T22:02:33.326Z,2.60
2019-02-26T22:05:05.276Z,2.60
2019-02-26T22:07:34.681Z,2.50
2019-02-26T22:10:07.077Z,2.50
2019-02-26T22:12:36.345Z,2.40
2019-02-26T22:15:10.102Z,2.50
2019-02-26T22:17:38.578Z,2.40
2019-02-26T22:20:21.621Z,2.30
2019-02-26T22:22:42.031Z,2.30
2019-02-26T22:25:15.809Z,2.40
2019-02-26T22:27:43.851Z,2.30
2019-02-26T22:30:15.618Z,2.30
2019-02-26T22:32:45.677Z,2.20
2019-02-26T22:35:15.534Z,2.20
2019-02-26T22:37:46.459Z,2.20
2019-02-26T22:40:16.494Z,2.20
2019-02-26T22:42:46.346Z,2.20
2019-02-26T22:45:16.325Z,2.20
2019-02-26T22:47:46.199Z,2.10
2019-02-26T22:50:16.061Z,2.10
2019-02-26T22:52:46.012Z,2.10
2019-02-26T22:55:17.575Z,2.00
2019-02-26T22:57:47.848Z,2.00
2019-02-26T23:00:56.005Z,2.00
2019-02-26T23:03:25.971Z,1.90
2019-02-26T23:05:58.779Z,1.90
2019-02-26T23:08:27.954Z,2.00
2019-02-26T23:10:58.060Z,1.90
2019-02-26T23:13:31.461Z,2.00
2019-02-26T23:16:00.243Z,2.00
2019-02-26T23:18:30.975Z,1.90
2019-02-26T23:21:01.821Z,1.90
2019-02-26T23:23:31.900Z,1.90
2019-02-26T23:26:01.774Z,1.90
2019-02-26T23:28:31.722Z,1.90
2019-02-26T23:31:01.826Z,1.90
2019-02-26T23:33:31.648Z,1.90
2019-02-26T23:36:01.622Z,1.90
2019-02-26T23:38:31.592Z,1.90
2019-02-26T23:41:01.526Z,1.80
2019-02-26T23:43:32.294Z,1.80
2019-02-26T23:46:02.244Z,1.80
2019-02-26T23:48:32.100Z,1.80
2019-02-26T23:51:01.955Z,1.80
2019-02-26T23:53:33.862Z,1.80
2019-02-26T23:56:03.315Z,1.80
2019-02-26T23:58:34.930Z,1.80
